sensor_id;sensor_type;location;lat;lon;timestamp;P1;durP1;ratioP1;P2;durP2;ratioP2
38591;SDS011;24356;48.460;11.450;2022-12-11T00:01:58;46.28;;;21.10;;
38591;SDS011;24356;48.460;11.450;2022-12-11T00:04:24;44.15;;;20.52;;
38591;SDS011;24356;48.460;11.450;2022-12-11T00:06:50;41.65;;;19.85;;
38591;SDS011;24356;48.460;11.450;2022-12-11T00:09:17;46.20;;;20.83;;
38591;SDS011;24356;48.460;11.450;2022-12-11T00:11:43;47.63;;;19.75;;
38591;SDS011;24356;48.460;11.450;2022-12-11T00:14:10;44.15;;;19.95;;
38591;SDS011;24356;48.460;11.450;2022-12-11T00:16:39;42.20;;;18.52;;
38591;SDS011;24356;48.460;11.450;2022-12-11T00:19:05;45.25;;;19.38;;
38591;SDS011;24356;48.460;11.450;2022-12-11T00:21:30;40.63;;;19.35;;
38591;SDS011;24356;48.460;11.450;2022-12-11T00:23:57;42.30;;;20.08;;
38591;SDS011;24356;48.460;11.450;2022-12-11T00:26:22;37.70;;;17.38;;
38591;SDS011;24356;48.460;11.450;2022-12-11T00:28:50;39.03;;;17.90;;
38591;SDS011;24356;48.460;11.450;2022-12-11T00:31:18;38.05;;;18.50;;
38591;SDS011;24356;48.460;11.450;2022-12-11T00:33:44;38.15;;;17.88;;
38591;SDS011;24356;48.460;11.450;2022-12-11T00:36:14;39.38;;;17.75;;
38591;SDS011;24356;48.460;11.450;2022-12-11T00:38:41;35.08;;;17.90;;
38591;SDS011;24356;48.460;11.450;2022-12-11T00:41:07;37.55;;;17.20;;
38591;SDS011;24356;48.460;11.450;2022-12-11T00:43:33;38.47;;;17.17;;
38591;SDS011;24356;48.460;11.450;2022-12-11T00:45:59;37.85;;;17.25;;
38591;SDS011;24356;48.460;11.450;2022-12-11T00:48:28;34.85;;;15.40;;
38591;SDS011;24356;48.460;11.450;2022-12-11T00:50:55;35.60;;;16.30;;
38591;SDS011;24356;48.460;11.450;2022-12-11T00:53:21;35.08;;;16.95;;
38591;SDS011;24356;48.460;11.450;2022-12-11T00:55:47;37.95;;;16.50;;
38591;SDS011;24356;48.460;11.450;2022-12-11T00:58:12;36.60;;;16.70;;
38591;SDS011;24356;48.460;11.450;2022-12-11T01:00:38;34.13;;;15.25;;
38591;SDS011;24356;48.460;11.450;2022-12-11T01:03:07;33.38;;;16.60;;
38591;SDS011;24356;48.460;11.450;2022-12-11T01:05:35;33.05;;;15.35;;
38591;SDS011;24356;48.460;11.450;2022-12-11T01:08:00;35.75;;;15.93;;
38591;SDS011;24356;48.460;11.450;2022-12-11T01:10:27;36.38;;;17.17;;
38591;SDS011;24356;48.460;11.450;2022-12-11T01:12:54;32.83;;;15.68;;
38591;SDS011;24356;48.460;11.450;2022-12-11T01:15:22;35.55;;;15.57;;
38591;SDS011;24356;48.460;11.450;2022-12-11T01:17:50;31.30;;;15.10;;
38591;SDS011;24356;48.460;11.450;2022-12-11T01:20:16;31.55;;;15.35;;
38591;SDS011;24356;48.460;11.450;2022-12-11T01:22:43;33.28;;;15.55;;
38591;SDS011;24356;48.460;11.450;2022-12-11T01:25:10;33.58;;;15.63;;
38591;SDS011;24356;48.460;11.450;2022-12-11T01:27:36;30.67;;;14.57;;
38591;SDS011;24356;48.460;11.450;2022-12-11T01:30:03;34.28;;;15.55;;
38591;SDS011;24356;48.460;11.450;2022-12-11T01:32:31;28.42;;;14.30;;
38591;SDS011;24356;48.460;11.450;2022-12-11T01:34:57;30.35;;;15.13;;
38591;SDS011;24356;48.460;11.450;2022-12-11T01:37:23;28.33;;;14.60;;
38591;SDS011;24356;48.460;11.450;2022-12-11T01:39:48;34.13;;;14.30;;
38591;SDS011;24356;48.460;11.450;2022-12-11T01:42:15;31.50;;;14.07;;
38591;SDS011;24356;48.460;11.450;2022-12-11T01:47:08;26.58;;;13.27;;
38591;SDS011;24356;48.460;11.450;2022-12-11T01:49:34;28.20;;;12.98;;
38591;SDS011;24356;48.460;11.450;2022-12-11T01:54:39;29.13;;;13.63;;
38591;SDS011;24356;48.460;11.450;2022-12-11T01:57:06;25.27;;;12.70;;
38591;SDS011;24356;48.460;11.450;2022-12-11T01:59:35;26.00;;;12.50;;
38591;SDS011;24356;48.460;11.450;2022-12-11T02:02:05;27.60;;;13.85;;
38591;SDS011;24356;48.460;11.450;2022-12-11T02:04:34;27.02;;;13.23;;
38591;SDS011;24356;48.460;11.450;2022-12-11T02:07:03;27.90;;;12.95;;
38591;SDS011;24356;48.460;11.450;2022-12-11T02:09:32;27.50;;;12.85;;
38591;SDS011;24356;48.460;11.450;2022-12-11T02:14:35;25.67;;;12.05;;
38591;SDS011;24356;48.460;11.450;2022-12-11T02:20:53;25.55;;;13.00;;
38591;SDS011;24356;48.460;11.450;2022-12-11T02:26:11;24.98;;;12.50;;
38591;SDS011;24356;48.460;11.450;2022-12-11T02:31:33;23.05;;;11.98;;
38591;SDS011;24356;48.460;11.450;2022-12-11T02:36:55;21.20;;;11.05;;
38591;SDS011;24356;48.460;11.450;2022-12-11T02:39:25;22.50;;;11.82;;
38591;SDS011;24356;48.460;11.450;2022-12-11T02:41:53;23.13;;;12.00;;
38591;SDS011;24356;48.460;11.450;2022-12-11T02:44:22;22.15;;;12.02;;
38591;SDS011;24356;48.460;11.450;2022-12-11T02:46:51;23.50;;;11.57;;
38591;SDS011;24356;48.460;11.450;2022-12-11T02:49:18;23.55;;;11.60;;
38591;SDS011;24356;48.460;11.450;2022-12-11T02:51:45;23.08;;;11.43;;
38591;SDS011;24356;48.460;11.450;2022-12-11T02:54:12;22.70;;;10.95;;
38591;SDS011;24356;48.460;11.450;2022-12-11T02:59:43;21.20;;;10.82;;
38591;SDS011;24356;48.460;11.450;2022-12-11T03:02:14;21.73;;;10.70;;
38591;SDS011;24356;48.460;11.450;2022-12-11T03:04:41;21.73;;;10.63;;
38591;SDS011;24356;48.460;11.450;2022-12-11T03:07:14;23.58;;;10.93;;
38591;SDS011;24356;48.460;11.450;2022-12-11T03:09:48;22.05;;;11.40;;
38591;SDS011;24356;48.460;11.450;2022-12-11T03:12:16;21.10;;;10.88;;
38591;SDS011;24356;48.460;11.450;2022-12-11T03:14:46;21.38;;;11.57;;
38591;SDS011;24356;48.460;11.450;2022-12-11T03:17:17;20.02;;;10.55;;
38591;SDS011;24356;48.460;11.450;2022-12-11T03:20:06;18.67;;;10.02;;
38591;SDS011;24356;48.460;11.450;2022-12-11T03:22:38;19.98;;;10.02;;
38591;SDS011;24356;48.460;11.450;2022-12-11T03:25:29;20.85;;;10.73;;
38591;SDS011;24356;48.460;11.450;2022-12-11T03:28:05;20.02;;;10.57;;
38591;SDS011;24356;48.460;11.450;2022-12-11T03:30:37;19.15;;;10.35;;
38591;SDS011;24356;48.460;11.450;2022-12-11T03:33:08;22.25;;;11.02;;
38591;SDS011;24356;48.460;11.450;2022-12-11T03:35:38;22.15;;;10.63;;
38591;SDS011;24356;48.460;11.450;2022-12-11T03:38:18;20.42;;;11.02;;
38591;SDS011;24356;48.460;11.450;2022-12-11T03:41:08;22.33;;;11.35;;
38591;SDS011;24356;48.460;11.450;2022-12-11T03:43:36;23.20;;;11.60;;
38591;SDS011;24356;48.460;11.450;2022-12-11T03:46:04;18.42;;;9.85;;
38591;SDS011;24356;48.460;11.450;2022-12-11T03:48:32;21.67;;;10.63;;
38591;SDS011;24356;48.460;11.450;2022-12-11T03:51:01;19.98;;;10.32;;
38591;SDS011;24356;48.460;11.450;2022-12-11T03:53:30;20.33;;;10.68;;
38591;SDS011;24356;48.460;11.450;2022-12-11T03:55:58;20.13;;;10.52;;
38591;SDS011;24356;48.460;11.450;2022-12-11T03:58:28;21.23;;;10.55;;
38591;SDS011;24356;48.460;11.450;2022-12-11T04:00:54;20.50;;;10.30;;
38591;SDS011;24356;48.460;11.450;2022-12-11T04:03:19;21.17;;;10.38;;
38591;SDS011;24356;48.460;11.450;2022-12-11T04:05:47;22.55;;;10.05;;
38591;SDS011;24356;48.460;11.450;2022-12-11T04:08:14;17.63;;;9.20;;
38591;SDS011;24356;48.460;11.450;2022-12-11T04:10:41;18.45;;;9.35;;
38591;SDS011;24356;48.460;11.450;2022-12-11T04:13:07;18.73;;;10.10;;
38591;SDS011;24356;48.460;11.450;2022-12-11T04:15:33;19.42;;;9.95;;
38591;SDS011;24356;48.460;11.450;2022-12-11T04:18:01;21.38;;;10.23;;
38591;SDS011;24356;48.460;11.450;2022-12-11T04:20:45;20.02;;;10.02;;
38591;SDS011;24356;48.460;11.450;2022-12-11T04:26:14;18.48;;;9.40;;
38591;SDS011;24356;48.460;11.450;2022-12-11T04:28:42;21.83;;;10.85;;
38591;SDS011;24356;48.460;11.450;2022-12-11T04:31:12;22.95;;;11.82;;
38591;SDS011;24356;48.460;11.450;2022-12-11T04:33:39;26.80;;;11.90;;
38591;SDS011;24356;48.460;11.450;2022-12-11T04:36:05;29.10;;;12.98;;
38591;SDS011;24356;48.460;11.450;2022-12-11T04:38:31;32.83;;;13.82;;
38591;SDS011;24356;48.460;11.450;2022-12-11T04:40:58;28.02;;;12.88;;
38591;SDS011;24356;48.460;11.450;2022-12-11T04:43:35;24.42;;;11.45;;
38591;SDS011;24356;48.460;11.450;2022-12-11T04:46:07;23.48;;;11.75;;
38591;SDS011;24356;48.460;11.450;2022-12-11T04:48:35;23.77;;;11.60;;
38591;SDS011;24356;48.460;11.450;2022-12-11T04:51:01;26.48;;;11.65;;
38591;SDS011;24356;48.460;11.450;2022-12-11T04:53:27;22.98;;;12.02;;
38591;SDS011;24356;48.460;11.450;2022-12-11T04:55:53;25.35;;;11.93;;
38591;SDS011;24356;48.460;11.450;2022-12-11T04:58:20;26.65;;;12.30;;
38591;SDS011;24356;48.460;11.450;2022-12-11T05:00:46;24.98;;;11.55;;
38591;SDS011;24356;48.460;11.450;2022-12-11T05:03:11;24.08;;;12.05;;
38591;SDS011;24356;48.460;11.450;2022-12-11T05:05:37;27.35;;;12.25;;
38591;SDS011;24356;48.460;11.450;2022-12-11T05:08:03;26.33;;;12.25;;
38591;SDS011;24356;48.460;11.450;2022-12-11T05:10:29;25.92;;;12.35;;
38591;SDS011;24356;48.460;11.450;2022-12-11T05:12:55;26.77;;;12.13;;
38591;SDS011;24356;48.460;11.450;2022-12-11T05:15:20;26.27;;;12.32;;
38591;SDS011;24356;48.460;11.450;2022-12-11T05:17:47;23.63;;;11.32;;
38591;SDS011;24356;48.460;11.450;2022-12-11T05:20:13;25.65;;;12.55;;
38591;SDS011;24356;48.460;11.450;2022-12-11T05:22:39;27.17;;;13.10;;
38591;SDS011;24356;48.460;11.450;2022-12-11T05:25:05;25.88;;;13.30;;
38591;SDS011;24356;48.460;11.450;2022-12-11T05:27:31;25.50;;;12.50;;
38591;SDS011;24356;48.460;11.450;2022-12-11T05:29:57;29.40;;;13.88;;
38591;SDS011;24356;48.460;11.450;2022-12-11T05:32:23;35.95;;;15.27;;
38591;SDS011;24356;48.460;11.450;2022-12-11T05:34:50;24.17;;;12.10;;
38591;SDS011;24356;48.460;11.450;2022-12-11T05:37:16;29.92;;;14.32;;
38591;SDS011;24356;48.460;11.450;2022-12-11T05:39:42;30.33;;;14.07;;
38591;SDS011;24356;48.460;11.450;2022-12-11T05:42:08;30.13;;;14.43;;
38591;SDS011;24356;48.460;11.450;2022-12-11T05:44:33;29.67;;;14.80;;
38591;SDS011;24356;48.460;11.450;2022-12-11T05:46:59;35.20;;;15.55;;
38591;SDS011;24356;48.460;11.450;2022-12-11T05:49:25;30.55;;;14.30;;
38591;SDS011;24356;48.460;11.450;2022-12-11T05:51:50;30.95;;;14.60;;
38591;SDS011;24356;48.460;11.450;2022-12-11T05:54:16;29.88;;;14.55;;
38591;SDS011;24356;48.460;11.450;2022-12-11T05:56:43;29.38;;;13.88;;
38591;SDS011;24356;48.460;11.450;2022-12-11T05:59:09;30.00;;;14.55;;
38591;SDS011;24356;48.460;11.450;2022-12-11T06:01:36;29.80;;;13.50;;
38591;SDS011;24356;48.460;11.450;2022-12-11T06:04:03;31.55;;;14.32;;
38591;SDS011;24356;48.460;11.450;2022-12-11T06:06:30;33.40;;;14.70;;
38591;SDS011;24356;48.460;11.450;2022-12-11T06:08:58;32.88;;;15.85;;
38591;SDS011;24356;48.460;11.450;2022-12-11T06:11:25;33.95;;;14.82;;
38591;SDS011;24356;48.460;11.450;2022-12-11T06:13:52;34.95;;;15.88;;
38591;SDS011;24356;48.460;11.450;2022-12-11T06:16:19;37.90;;;16.15;;
38591;SDS011;24356;48.460;11.450;2022-12-11T06:18:45;37.67;;;16.33;;
38591;SDS011;24356;48.460;11.450;2022-12-11T06:21:15;34.17;;;16.27;;
38591;SDS011;24356;48.460;11.450;2022-12-11T06:23:43;31.13;;;14.25;;
38591;SDS011;24356;48.460;11.450;2022-12-11T06:26:12;30.50;;;14.30;;
38591;SDS011;24356;48.460;11.450;2022-12-11T06:28:38;34.45;;;16.23;;
38591;SDS011;24356;48.460;11.450;2022-12-11T06:31:04;35.03;;;16.00;;
38591;SDS011;24356;48.460;11.450;2022-12-11T06:33:30;33.83;;;15.60;;
38591;SDS011;24356;48.460;11.450;2022-12-11T06:36:00;33.03;;;15.90;;
38591;SDS011;24356;48.460;11.450;2022-12-11T06:38:35;35.50;;;15.20;;
38591;SDS011;24356;48.460;11.450;2022-12-11T06:41:01;35.70;;;15.95;;
38591;SDS011;24356;48.460;11.450;2022-12-11T06:43:36;34.47;;;15.77;;
38591;SDS011;24356;48.460;11.450;2022-12-11T06:46:06;35.33;;;16.02;;
38591;SDS011;24356;48.460;11.450;2022-12-11T06:48:34;32.92;;;15.13;;
38591;SDS011;24356;48.460;11.450;2022-12-11T06:51:06;30.77;;;15.40;;
38591;SDS011;24356;48.460;11.450;2022-12-11T06:53:37;36.28;;;16.27;;
38591;SDS011;24356;48.460;11.450;2022-12-11T06:56:03;32.95;;;15.57;;
38591;SDS011;24356;48.460;11.450;2022-12-11T06:58:32;39.25;;;16.77;;
38591;SDS011;24356;48.460;11.450;2022-12-11T07:00:59;34.10;;;15.95;;
38591;SDS011;24356;48.460;11.450;2022-12-11T07:03:24;43.47;;;18.52;;
38591;SDS011;24356;48.460;11.450;2022-12-11T07:05:50;35.63;;;17.58;;
38591;SDS011;24356;48.460;11.450;2022-12-11T07:08:16;39.85;;;17.70;;
38591;SDS011;24356;48.460;11.450;2022-12-11T07:10:41;39.13;;;17.48;;
38591;SDS011;24356;48.460;11.450;2022-12-11T07:13:07;36.92;;;17.35;;
38591;SDS011;24356;48.460;11.450;2022-12-11T07:15:32;36.70;;;16.50;;
38591;SDS011;24356;48.460;11.450;2022-12-11T07:17:58;41.53;;;17.35;;
38591;SDS011;24356;48.460;11.450;2022-12-11T07:20:23;43.97;;;18.73;;
38591;SDS011;24356;48.460;11.450;2022-12-11T07:22:49;39.40;;;17.83;;
38591;SDS011;24356;48.460;11.450;2022-12-11T07:25:15;35.80;;;17.38;;
38591;SDS011;24356;48.460;11.450;2022-12-11T07:27:41;39.78;;;17.02;;
38591;SDS011;24356;48.460;11.450;2022-12-11T07:30:06;39.90;;;18.05;;
38591;SDS011;24356;48.460;11.450;2022-12-11T07:32:33;39.65;;;17.77;;
38591;SDS011;24356;48.460;11.450;2022-12-11T07:34:58;41.47;;;17.52;;
38591;SDS011;24356;48.460;11.450;2022-12-11T07:37:24;39.30;;;17.48;;
38591;SDS011;24356;48.460;11.450;2022-12-11T07:39:50;34.58;;;16.42;;
38591;SDS011;24356;48.460;11.450;2022-12-11T07:42:15;36.28;;;16.38;;
38591;SDS011;24356;48.460;11.450;2022-12-11T07:44:41;34.33;;;15.25;;
38591;SDS011;24356;48.460;11.450;2022-12-11T07:47:06;33.80;;;16.63;;
38591;SDS011;24356;48.460;11.450;2022-12-11T07:49:32;33.88;;;16.02;;
38591;SDS011;24356;48.460;11.450;2022-12-11T07:51:58;33.28;;;16.52;;
38591;SDS011;24356;48.460;11.450;2022-12-11T07:54:23;32.92;;;15.48;;
38591;SDS011;24356;48.460;11.450;2022-12-11T07:56:49;34.42;;;16.10;;
38591;SDS011;24356;48.460;11.450;2022-12-11T07:59:15;32.95;;;15.35;;
38591;SDS011;24356;48.460;11.450;2022-12-11T08:01:41;32.28;;;15.18;;
38591;SDS011;24356;48.460;11.450;2022-12-11T08:04:08;37.50;;;16.35;;
38591;SDS011;24356;48.460;11.450;2022-12-11T08:06:36;37.20;;;16.65;;
38591;SDS011;24356;48.460;11.450;2022-12-11T08:09:04;35.30;;;15.98;;
38591;SDS011;24356;48.460;11.450;2022-12-11T08:11:31;30.90;;;15.80;;
38591;SDS011;24356;48.460;11.450;2022-12-11T08:13:58;31.65;;;15.18;;
38591;SDS011;24356;48.460;11.450;2022-12-11T08:16:24;33.85;;;14.90;;
38591;SDS011;24356;48.460;11.450;2022-12-11T08:18:50;37.75;;;17.02;;
38591;SDS011;24356;48.460;11.450;2022-12-11T08:21:18;41.35;;;19.45;;
38591;SDS011;24356;48.460;11.450;2022-12-11T08:23:46;41.88;;;19.45;;
38591;SDS011;24356;48.460;11.450;2022-12-11T08:26:20;41.95;;;18.52;;
38591;SDS011;24356;48.460;11.450;2022-12-11T08:28:49;33.17;;;17.48;;
38591;SDS011;24356;48.460;11.450;2022-12-11T08:31:15;35.10;;;16.38;;
38591;SDS011;24356;48.460;11.450;2022-12-11T08:33:42;35.40;;;17.23;;
38591;SDS011;24356;48.460;11.450;2022-12-11T08:36:10;34.20;;;16.80;;
38591;SDS011;24356;48.460;11.450;2022-12-11T08:38:37;33.20;;;16.33;;
38591;SDS011;24356;48.460;11.450;2022-12-11T08:41:22;33.40;;;16.50;;
38591;SDS011;24356;48.460;11.450;2022-12-11T08:43:51;34.50;;;15.50;;
38591;SDS011;24356;48.460;11.450;2022-12-11T08:46:19;32.72;;;15.25;;
38591;SDS011;24356;48.460;11.450;2022-12-11T08:48:47;33.65;;;15.07;;
38591;SDS011;24356;48.460;11.450;2022-12-11T08:51:14;30.88;;;14.73;;
38591;SDS011;24356;48.460;11.450;2022-12-11T08:53:42;32.17;;;15.23;;
38591;SDS011;24356;48.460;11.450;2022-12-11T08:56:12;33.25;;;15.35;;
38591;SDS011;24356;48.460;11.450;2022-12-11T08:58:40;32.35;;;15.15;;
38591;SDS011;24356;48.460;11.450;2022-12-11T09:01:07;30.02;;;14.88;;
38591;SDS011;24356;48.460;11.450;2022-12-11T09:03:41;29.33;;;14.15;;
38591;SDS011;24356;48.460;11.450;2022-12-11T09:06:07;32.63;;;15.85;;
38591;SDS011;24356;48.460;11.450;2022-12-11T09:08:35;32.40;;;15.40;;
38591;SDS011;24356;48.460;11.450;2022-12-11T09:13:31;32.75;;;15.85;;
38591;SDS011;24356;48.460;11.450;2022-12-11T09:15:57;29.70;;;14.82;;
38591;SDS011;24356;48.460;11.450;2022-12-11T09:18:23;38.30;;;15.50;;
38591;SDS011;24356;48.460;11.450;2022-12-11T09:20:56;29.38;;;13.65;;
38591;SDS011;24356;48.460;11.450;2022-12-11T09:23:25;28.10;;;13.90;;
38591;SDS011;24356;48.460;11.450;2022-12-11T09:25:50;30.92;;;14.82;;
38591;SDS011;24356;48.460;11.450;2022-12-11T09:28:17;27.38;;;13.93;;
38591;SDS011;24356;48.460;11.450;2022-12-11T09:30:45;29.40;;;14.10;;
38591;SDS011;24356;48.460;11.450;2022-12-11T09:33:11;30.95;;;14.50;;
38591;SDS011;24356;48.460;11.450;2022-12-11T09:35:36;25.48;;;14.02;;
38591;SDS011;24356;48.460;11.450;2022-12-11T09:38:02;29.17;;;14.05;;
38591;SDS011;24356;48.460;11.450;2022-12-11T09:40:28;28.10;;;14.02;;
38591;SDS011;24356;48.460;11.450;2022-12-11T09:45:30;31.38;;;14.10;;
38591;SDS011;24356;48.460;11.450;2022-12-11T09:47:57;28.50;;;14.30;;
38591;SDS011;24356;48.460;11.450;2022-12-11T09:50:27;28.73;;;13.95;;
38591;SDS011;24356;48.460;11.450;2022-12-11T09:55:54;27.15;;;13.90;;
38591;SDS011;24356;48.460;11.450;2022-12-11T10:04:02;24.40;;;12.70;;
38591;SDS011;24356;48.460;11.450;2022-12-11T10:09:04;23.15;;;12.45;;
38591;SDS011;24356;48.460;11.450;2022-12-11T10:11:52;26.60;;;13.45;;
38591;SDS011;24356;48.460;11.450;2022-12-11T10:17:32;24.03;;;13.20;;
38591;SDS011;24356;48.460;11.450;2022-12-11T10:20:04;24.38;;;12.52;;
38591;SDS011;24356;48.460;11.450;2022-12-11T10:22:44;26.23;;;12.38;;
38591;SDS011;24356;48.460;11.450;2022-12-11T10:25:23;25.88;;;12.00;;
38591;SDS011;24356;48.460;11.450;2022-12-11T10:28:12;32.55;;;14.35;;
38591;SDS011;24356;48.460;11.450;2022-12-11T10:33:32;60.90;;;19.77;;
38591;SDS011;24356;48.460;11.450;2022-12-11T10:36:04;31.38;;;12.90;;
38591;SDS011;24356;48.460;11.450;2022-12-11T10:38:33;31.80;;;13.68;;
38591;SDS011;24356;48.460;11.450;2022-12-11T10:41:13;25.05;;;11.93;;
38591;SDS011;24356;48.460;11.450;2022-12-11T10:43:47;25.50;;;12.18;;
38591;SDS011;24356;48.460;11.450;2022-12-11T10:48:49;26.40;;;11.75;;
38591;SDS011;24356;48.460;11.450;2022-12-11T10:51:17;23.33;;;12.23;;
38591;SDS011;24356;48.460;11.450;2022-12-11T10:53:52;24.98;;;11.95;;
38591;SDS011;24356;48.460;11.450;2022-12-11T10:56:27;21.52;;;10.90;;
38591;SDS011;24356;48.460;11.450;2022-12-11T10:58:55;24.30;;;11.75;;
38591;SDS011;24356;48.460;11.450;2022-12-11T11:01:22;27.67;;;12.52;;
38591;SDS011;24356;48.460;11.450;2022-12-11T11:03:51;22.95;;;10.93;;
38591;SDS011;24356;48.460;11.450;2022-12-11T11:06:18;24.52;;;12.07;;
38591;SDS011;24356;48.460;11.450;2022-12-11T11:08:46;20.92;;;9.48;;
38591;SDS011;24356;48.460;11.450;2022-12-11T11:11:22;19.30;;;10.60;;
38591;SDS011;24356;48.460;11.450;2022-12-11T11:14:04;19.95;;;10.05;;
38591;SDS011;24356;48.460;11.450;2022-12-11T11:16:34;19.40;;;9.68;;
38591;SDS011;24356;48.460;11.450;2022-12-11T11:19:01;20.80;;;10.50;;
38591;SDS011;24356;48.460;11.450;2022-12-11T11:21:28;17.02;;;8.93;;
38591;SDS011;24356;48.460;11.450;2022-12-11T11:23:55;21.45;;;10.43;;
38591;SDS011;24356;48.460;11.450;2022-12-11T11:26:21;21.38;;;10.63;;
38591;SDS011;24356;48.460;11.450;2022-12-11T11:28:49;21.80;;;10.45;;
38591;SDS011;24356;48.460;11.450;2022-12-11T11:31:20;14.65;;;8.68;;
38591;SDS011;24356;48.460;11.450;2022-12-11T11:33:57;18.50;;;9.70;;
38591;SDS011;24356;48.460;11.450;2022-12-11T11:36:25;16.92;;;8.57;;
38591;SDS011;24356;48.460;11.450;2022-12-11T11:38:58;17.15;;;9.65;;
38591;SDS011;24356;48.460;11.450;2022-12-11T11:57:59;22.98;;;10.07;;
38591;SDS011;24356;48.460;11.450;2022-12-11T12:00:29;17.75;;;9.60;;
38591;SDS011;24356;48.460;11.450;2022-12-11T12:02:56;21.75;;;9.82;;
38591;SDS011;24356;48.460;11.450;2022-12-11T12:05:26;16.70;;;8.77;;
38591;SDS011;24356;48.460;11.450;2022-12-11T12:11:20;15.30;;;8.37;;
38591;SDS011;24356;48.460;11.450;2022-12-11T12:24:52;14.48;;;7.78;;
38591;SDS011;24356;48.460;11.450;2022-12-11T12:30:04;15.07;;;8.80;;
38591;SDS011;24356;48.460;11.450;2022-12-11T12:33:00;16.20;;;9.10;;
38591;SDS011;24356;48.460;11.450;2022-12-11T12:38:52;17.88;;;8.68;;
38591;SDS011;24356;48.460;11.450;2022-12-11T12:41:26;18.10;;;9.32;;
38591;SDS011;24356;48.460;11.450;2022-12-11T12:46:42;17.30;;;9.32;;
38591;SDS011;24356;48.460;11.450;2022-12-11T12:52:11;21.38;;;10.40;;
38591;SDS011;24356;48.460;11.450;2022-12-11T12:54:44;18.10;;;9.60;;
38591;SDS011;24356;48.460;11.450;2022-12-11T12:57:32;18.30;;;9.75;;
38591;SDS011;24356;48.460;11.450;2022-12-11T12:59:59;18.30;;;9.80;;
38591;SDS011;24356;48.460;11.450;2022-12-11T13:02:25;19.52;;;10.40;;
38591;SDS011;24356;48.460;11.450;2022-12-11T13:04:59;19.25;;;10.15;;
38591;SDS011;24356;48.460;11.450;2022-12-11T13:07:30;18.98;;;10.30;;
38591;SDS011;24356;48.460;11.450;2022-12-11T13:12:42;22.60;;;10.55;;
38591;SDS011;24356;48.460;11.450;2022-12-11T13:15:28;20.38;;;10.43;;
38591;SDS011;24356;48.460;11.450;2022-12-11T13:18:01;20.02;;;10.27;;
38591;SDS011;24356;48.460;11.450;2022-12-11T13:20:30;19.25;;;9.98;;
38591;SDS011;24356;48.460;11.450;2022-12-11T13:25:53;21.17;;;10.63;;
38591;SDS011;24356;48.460;11.450;2022-12-11T13:28:24;19.60;;;9.90;;
38591;SDS011;24356;48.460;11.450;2022-12-11T13:31:06;19.38;;;10.95;;
38591;SDS011;24356;48.460;11.450;2022-12-11T13:33:50;17.33;;;8.95;;
38591;SDS011;24356;48.460;11.450;2022-12-11T13:39:02;21.20;;;10.32;;
38591;SDS011;24356;48.460;11.450;2022-12-11T13:41:31;20.77;;;10.65;;
38591;SDS011;24356;48.460;11.450;2022-12-11T13:44:00;19.20;;;9.77;;
38591;SDS011;24356;48.460;11.450;2022-12-11T13:46:28;18.70;;;9.85;;
38591;SDS011;24356;48.460;11.450;2022-12-11T13:48:57;19.80;;;10.25;;
38591;SDS011;24356;48.460;11.450;2022-12-11T13:51:26;20.67;;;9.90;;
38591;SDS011;24356;48.460;11.450;2022-12-11T13:54:15;13.15;;;6.00;;
38591;SDS011;24356;48.460;11.450;2022-12-11T13:56:56;10.00;;;5.32;;
38591;SDS011;24356;48.460;11.450;2022-12-11T13:59:32;9.15;;;4.93;;
38591;SDS011;24356;48.460;11.450;2022-12-11T14:04:46;10.00;;;4.82;;
38591;SDS011;24356;48.460;11.450;2022-12-11T14:07:35;13.68;;;5.25;;
38591;SDS011;24356;48.460;11.450;2022-12-11T14:12:42;10.15;;;5.07;;
38591;SDS011;24356;48.460;11.450;2022-12-11T14:15:22;10.63;;;5.23;;
38591;SDS011;24356;48.460;11.450;2022-12-11T14:17:48;11.63;;;5.53;;
38591;SDS011;24356;48.460;11.450;2022-12-11T14:20:18;6.78;;;3.88;;
38591;SDS011;24356;48.460;11.450;2022-12-11T14:22:49;4.47;;;2.72;;
38591;SDS011;24356;48.460;11.450;2022-12-11T14:25:17;5.85;;;3.08;;
38591;SDS011;24356;48.460;11.450;2022-12-11T14:27:49;6.35;;;3.08;;
38591;SDS011;24356;48.460;11.450;2022-12-11T14:30:21;4.53;;;2.70;;
38591;SDS011;24356;48.460;11.450;2022-12-11T14:32:48;5.43;;;2.72;;
38591;SDS011;24356;48.460;11.450;2022-12-11T14:37:54;4.20;;;1.75;;
38591;SDS011;24356;48.460;11.450;2022-12-11T14:40:44;6.78;;;2.67;;
38591;SDS011;24356;48.460;11.450;2022-12-11T14:43:13;4.45;;;2.65;;
38591;SDS011;24356;48.460;11.450;2022-12-11T14:45:43;7.97;;;3.40;;
38591;SDS011;24356;48.460;11.450;2022-12-11T14:48:16;6.43;;;3.95;;
38591;SDS011;24356;48.460;11.450;2022-12-11T14:50:54;8.13;;;3.88;;
38591;SDS011;24356;48.460;11.450;2022-12-11T14:53:30;10.43;;;5.28;;
38591;SDS011;24356;48.460;11.450;2022-12-11T14:56:12;11.63;;;5.20;;
38591;SDS011;24356;48.460;11.450;2022-12-11T14:58:56;13.93;;;6.13;;
38591;SDS011;24356;48.460;11.450;2022-12-11T15:04:00;8.85;;;4.95;;
38591;SDS011;24356;48.460;11.450;2022-12-11T15:06:29;8.98;;;4.55;;
38591;SDS011;24356;48.460;11.450;2022-12-11T15:08:57;8.27;;;4.40;;
38591;SDS011;24356;48.460;11.450;2022-12-11T15:11:54;8.52;;;4.63;;
38591;SDS011;24356;48.460;11.450;2022-12-11T15:14:22;9.90;;;4.68;;
38591;SDS011;24356;48.460;11.450;2022-12-11T15:16:49;7.70;;;4.15;;
38591;SDS011;24356;48.460;11.450;2022-12-11T15:19:22;10.50;;;4.25;;
38591;SDS011;24356;48.460;11.450;2022-12-11T15:22:02;8.90;;;4.57;;
38591;SDS011;24356;48.460;11.450;2022-12-11T15:24:39;11.48;;;5.45;;
38591;SDS011;24356;48.460;11.450;2022-12-11T15:27:19;13.43;;;5.38;;
38591;SDS011;24356;48.460;11.450;2022-12-11T15:29:51;12.75;;;5.30;;
38591;SDS011;24356;48.460;11.450;2022-12-11T15:32:18;17.60;;;6.78;;
38591;SDS011;24356;48.460;11.450;2022-12-11T15:37:23;16.45;;;7.30;;
38591;SDS011;24356;48.460;11.450;2022-12-11T15:39:58;19.52;;;8.93;;
38591;SDS011;24356;48.460;11.450;2022-12-11T15:42:26;18.88;;;8.25;;
38591;SDS011;24356;48.460;11.450;2022-12-11T15:45:23;23.63;;;8.73;;
38591;SDS011;24356;48.460;11.450;2022-12-11T15:47:52;23.58;;;8.13;;
38591;SDS011;24356;48.460;11.450;2022-12-11T15:50:22;35.47;;;8.55;;
38591;SDS011;24356;48.460;11.450;2022-12-11T15:52:56;28.40;;;8.40;;
38591;SDS011;24356;48.460;11.450;2022-12-11T15:55:23;27.10;;;8.20;;
38591;SDS011;24356;48.460;11.450;2022-12-11T15:57:54;26.15;;;8.70;;
38591;SDS011;24356;48.460;11.450;2022-12-11T16:00:22;20.00;;;9.18;;
38591;SDS011;24356;48.460;11.450;2022-12-11T16:02:48;19.02;;;8.90;;
38591;SDS011;24356;48.460;11.450;2022-12-11T16:05:15;18.77;;;9.35;;
38591;SDS011;24356;48.460;11.450;2022-12-11T16:07:41;21.35;;;9.20;;
38591;SDS011;24356;48.460;11.450;2022-12-11T16:10:09;24.58;;;9.77;;
38591;SDS011;24356;48.460;11.450;2022-12-11T16:12:38;21.13;;;9.23;;
38591;SDS011;24356;48.460;11.450;2022-12-11T16:15:04;22.02;;;9.80;;
38591;SDS011;24356;48.460;11.450;2022-12-11T16:17:30;21.50;;;10.43;;
38591;SDS011;24356;48.460;11.450;2022-12-11T16:19:56;24.20;;;9.82;;
38591;SDS011;24356;48.460;11.450;2022-12-11T16:22:22;21.15;;;9.95;;